»·PEaware :: AAL1646 KPHX-KLAS

AAL1646 :: KPHX-KLAS

FLIGHT INFORMATION

Flight Status: Arrived
Operator:
American Airlines
More flights by this operator :: More flights under this callsign
Pilot: Ben L. (6391)
Aircraft: AIRBUS A320
(A320)
More flights by this aircraft type
Origin: KPHX Phoenix Sky Harbor Intl
United States
Destination: KLAS McCarran Intl
United States
More flights between these airports :: More routes between these airports
Route: +MAYSA5 SISIE IGM TYSSN5
File this flight plan on PilotEdge
Remarks:
Altitude:
(Current/Filed)
28,000ft
Speed:
(Current/Filed)
470kts
Departed: 09-Jan-18 06:10 PM
Arrived: 09-Jan-18 06:54 PM
Distance/Time
Traveled:
221nm/0:44
Distance/Time
To Go:
Arrived

Flight Plot

Page will automatically refresh every two minutes.

Flight plan parsing failed; only flown route is shown


Map Options




Map Legend


Flown Route
Filed Route
Departure Airport
Arrival Airport
Navaid (VOR, NDB)
Fix

Horizontal Profiles

Position Reports

Time Latitude Longitude Heading Altitude Ground
Speed
09-Jan-18 17:58 33.436488 -111.999802 90 1143ft 0kts
09-Jan-18 17:59 33.436488 -111.999802 89 1143ft 0kts
09-Jan-18 18:00 33.436488 -111.999802 90 1143ft 0kts
09-Jan-18 18:01 33.436488 -111.999802 90 1143ft 0kts
09-Jan-18 18:02 33.436488 -111.999802 89 1143ft 0kts
09-Jan-18 18:03 33.436488 -111.999802 90 1143ft 0kts
09-Jan-18 18:04 33.436488 -111.999802 90 1143ft 0kts
09-Jan-18 18:05 33.436488 -111.999873 89 1143ft 2kts
09-Jan-18 18:06 33.436488 -112.000545 89 1143ft 0kts
09-Jan-18 18:07 33.436488 -112.000545 89 1143ft 0kts
09-Jan-18 18:08 33.436488 -112.000545 90 1143ft 0kts
09-Jan-18 18:09 33.436789 -112.000306 346 1143ft 8kts
09-Jan-18 18:10 33.438621 -112.000596 347 1143ft 5kts
09-Jan-18 18:11 33.439721 -112.003411 267 1143ft 17kts
09-Jan-18 18:12 33.439638 -112.010996 279 1143ft 16kts
09-Jan-18 18:13 33.439720 -112.016070 270 1143ft 20kts
09-Jan-18 18:14 33.439755 -112.023741 268 1143ft 25kts
09-Jan-18 18:15 33.440679 -112.029685 25 1143ft 4kts
09-Jan-18 18:16 33.440558 -112.013979 93 1250ft 145kts
09-Jan-18 18:17 33.436792 -111.956179 97 3607ft 230kts
09-Jan-18 18:18 33.436700 -111.870597 70 6882ft 294kts
09-Jan-18 18:19 33.509598 -111.833018 357 9718ft 326kts
09-Jan-18 18:20 33.607180 -111.835628 358 11840ft 394kts
09-Jan-18 18:21 33.715469 -111.849761 337 14364ft 417kts
09-Jan-18 18:22 33.789803 -111.942712 298 16889ft 408kts
09-Jan-18 18:23 33.855999 -112.051773 297 19300ft 420kts
09-Jan-18 18:24 33.923726 -112.163084 297 21446ft 430kts
09-Jan-18 18:25 33.993515 -112.278092 296 23423ft 439kts
09-Jan-18 18:26 34.078446 -112.385508 310 25190ft 467kts
09-Jan-18 18:27 34.173919 -112.481422 309 26715ft 473kts
09-Jan-18 18:28 34.272895 -112.581305 309 27918ft 477kts
09-Jan-18 18:29 34.372618 -112.682260 308 27946ft 485kts
09-Jan-18 18:30 34.472608 -112.783809 308 27945ft 485kts
09-Jan-18 18:31 34.572126 -112.885364 306 27936ft 454kts
09-Jan-18 18:32 34.662366 -112.984007 307 27929ft 452kts
09-Jan-18 18:33 34.753074 -113.083198 306 27930ft 441kts
09-Jan-18 18:34 34.842623 -113.181467 307 27931ft 442kts
09-Jan-18 18:35 34.931544 -113.279380 307 27929ft 442kts
09-Jan-18 18:36 35.007960 -113.387496 289 27919ft 421kts
09-Jan-18 18:37 35.064778 -113.509990 289 27932ft 424kts
09-Jan-18 18:38 35.120411 -113.629971 290 25851ft 429kts
09-Jan-18 18:39 35.177661 -113.753782 290 23960ft 416kts
09-Jan-18 18:40 35.225088 -113.856914 290 23923ft 397kts
09-Jan-18 18:41 35.286209 -113.958200 315 23925ft 423kts
09-Jan-18 18:42 35.377083 -114.042331 315 23929ft 423kts
09-Jan-18 18:43 35.468448 -114.127500 315 23038ft 416kts
09-Jan-18 18:44 35.557459 -114.210425 316 21074ft 406kts
09-Jan-18 18:45 35.643972 -114.291262 317 19189ft 394kts
09-Jan-18 18:46 35.726783 -114.368830 318 16312ft 375kts
09-Jan-18 18:47 35.817344 -114.418506 337 13126ft 360kts
09-Jan-18 18:48 35.904317 -114.459179 337 12063ft 303kts
09-Jan-18 18:49 35.973723 -114.491767 336 12045ft 262kts
09-Jan-18 18:50 36.027591 -114.549923 282 12066ft 264kts
09-Jan-18 18:51 36.050963 -114.634046 282 11995ft 258kts
09-Jan-18 18:52 36.073057 -114.714927 279 10802ft 262kts
09-Jan-18 18:53 36.077342 -114.799479 263 9839ft 243kts
09-Jan-18 18:54 36.073795 -114.874052 261 8889ft 189kts
09-Jan-18 18:55 36.071826 -114.934283 261 7035ft 177kts
09-Jan-18 18:56 36.072711 -114.994492 265 4917ft 180kts
09-Jan-18 18:57 36.073638 -115.049569 265 3519ft 146kts
09-Jan-18 18:58 36.073484 -115.095443 274 2709ft 131kts
09-Jan-18 18:59 36.073680 -115.138436 272 2150ft 90kts
09-Jan-18 19:00 36.074842 -115.150792 309 2150ft 8kts
09-Jan-18 19:01 36.077952 -115.149111 94 2150ft 22kts
09-Jan-18 19:02 36.078409 -115.145466 96 2150ft 17kts
09-Jan-18 19:03 36.081092 -115.141536 356 2150ft 23kts
09-Jan-18 19:04 36.084645 -115.136429 83 2150ft 28kts
09-Jan-18 19:05 36.079293 -115.135368 270 2150ft 22kts
09-Jan-18 19:06 36.080838 -115.136805 54 2150ft 0kts
09-Jan-18 19:07 36.080866 -115.136758 52 2150ft 0kts
09-Jan-18 19:08 36.080866 -115.136758 52 2150ft 0kts

Navigation Log

Ident Type
Flight plan parsing failed, navigation log unavailable